Time;durP1;ratioP1;P1;durP2;ratioP2;P2;SDS_P1;SDS_P2;PMS_P1;PMS_P2;Temp;Humidity;BMP_temperature;BMP_pressure;BME280_temperature;BME280_humidity;BME280_pressure;Samples;Min_cycle;Max_cycle;Signal;HPM_P1;HPM_P2
2023/05/16 04:30:47;;;;;;;;;;;10.20;73.30;;;;;;5839801;22;20023;-86
2023/05/16 04:33:13;;;;;;;;;;;10.20;73.60;;;;;;5012231;28;19964;-85
2023/05/16 04:35:38;;;;;;;;;;;10.20;73.10;;;;;;5014560;28;19975;-80
2023/05/16 04:38:05;;;;;;;;;;;10.20;72.40;;;;;;5014114;28;19918;-81
2023/05/16 04:40:30;;;;;;;;;;;10.20;72.60;;;;;;5015792;28;20012;-82
2023/05/16 04:42:56;;;;;;;;;;;10.20;72.40;;;;;;5015068;28;19953;-82
2023/05/16 04:45:22;;;;;;;;;;;10.20;72.80;;;;;;5014140;28;19944;-82
2023/05/16 04:47:47;;;;;;;;;;;10.20;72.30;;;;;;5007136;28;19917;-83
2023/05/16 04:50:14;;;;;;;;;;;10.20;73.00;;;;;;5008881;28;19921;-81
2023/05/16 04:52:40;;;;;;;;;;;10.20;72.80;;;;;;5004099;28;19909;-82
2023/05/16 04:55:06;;;;;;;;;;;10.30;72.30;;;;;;5005737;28;19967;-80
2023/05/16 04:57:31;;;;;;;;;;;10.30;72.50;;;;;;5015939;28;19917;-78
2023/05/16 04:59:57;;;;;;;;;;;10.30;72.50;;;;;;5015678;28;19909;-80
2023/05/16 05:02:22;;;;;;;;;;;10.30;72.90;;;;;;5012639;28;19913;-82
2023/05/16 05:04:48;;;;;;;;;;;10.30;72.60;;;;;;5028507;28;19919;-81
2023/05/16 05:07:14;;;;;;;;;;;10.30;72.80;;;;;;5027451;28;20008;-81
2023/05/16 05:09:41;;;;;;;;;;;10.40;72.70;;;;;;5017152;28;19945;-82
2023/05/16 05:12:07;;;;;;;;;;;10.30;72.70;;;;;;5027930;28;19955;-84
2023/05/16 05:14:33;;;;;;;;;;;10.30;72.50;;;;;;5034755;28;19913;-85
2023/05/16 05:16:58;;;;;;;;;;;10.40;73.00;;;;;;5005719;28;19914;-85
2023/05/16 05:19:24;;;;;;;;;;;10.40;72.80;;;;;;5005574;28;19917;-79
2023/05/16 05:21:49;;;;;;;;;;;10.40;72.40;;;;;;5016483;28;19913;-87
2023/05/16 05:24:15;;;;;;;;;;;10.40;72.70;;;;;;5014640;28;20005;-86
2023/05/16 05:26:40;;;;;;;;;;;10.50;72.40;;;;;;5016779;28;19929;-85
2023/05/16 05:29:06;;;;;;;;;;;10.50;72.30;;;;;;5015732;28;19909;-86
2023/05/16 05:31:34;;;;;;;;;;;10.40;72.30;;;;;;5016069;28;19932;-84
2023/05/16 05:34:00;;;;;;;;;;;10.40;72.50;;;;;;5018129;28;19921;-88
2023/05/16 05:36:25;;;;;;;;;;;10.50;72.60;;;;;;5024192;28;19917;-88
2023/05/16 05:38:51;;;;;;;;;;;10.40;72.40;;;;;;5025700;28;19918;-88
2023/05/16 05:41:17;;;;;;;;;;;10.40;72.80;;;;;;5013725;28;19916;-87
2023/05/16 05:43:42;;;;;;;;;;;10.40;73.10;;;;;;5014471;28;20473;-89
2023/05/16 05:46:08;;;;;;;;;;;10.50;72.60;;;;;;5014432;28;19914;-85
2023/05/16 05:48:33;;;;;;;;;;;10.50;72.70;;;;;;4988671;28;19996;-85
2023/05/16 05:50:59;;;;;;;;;;;10.50;72.70;;;;;;5002074;28;19957;-85
2023/05/16 05:53:26;;;;;;;;;;;10.50;72.80;;;;;;5017020;28;19964;-85
2023/05/16 05:55:51;;;;;;;;;;;10.60;73.10;;;;;;5014556;28;19955;-85
2023/05/16 05:58:17;;;;;;;;;;;10.60;73.00;;;;;;5016754;28;19945;-85
2023/05/16 06:00:42;;;;;;;;;;;10.60;73.10;;;;;;5018278;28;20001;-86
2023/05/16 06:03:08;;;;;;;;;;;10.60;73.60;;;;;;5017700;28;19913;-86
2023/05/16 06:05:33;;;;;;;;;;;10.60;73.90;;;;;;5013628;28;19914;-85
2023/05/16 06:07:59;;;;;;;;;;;10.60;73.60;;;;;;5016113;28;19917;-84
2023/05/16 06:10:24;;;;;;;;;;;10.60;74.60;;;;;;5013191;28;19945;-83
2023/05/16 06:12:50;;;;;;;;;;;10.60;74.20;;;;;;5017440;28;19939;-86
2023/05/16 06:15:15;;;;;;;;;;;10.70;74.10;;;;;;5015162;28;19917;-85
2023/05/16 06:17:41;;;;;;;;;;;10.80;74.60;;;;;;5018164;28;20016;-85
2023/05/16 06:20:07;;;;;;;;;;;10.80;74.60;;;;;;5016571;28;19916;-85
2023/05/16 06:22:32;;;;;;;;;;;10.80;75.20;;;;;;5012594;28;19914;-89
2023/05/16 06:24:58;;;;;;;;;;;10.80;74.80;;;;;;5013663;28;19917;-88
2023/05/16 06:27:24;;;;;;;;;;;10.80;75.00;;;;;;5013448;28;20390;-88
2023/05/16 06:29:49;;;;;;;;;;;10.90;75.50;;;;;;4998475;28;19964;-87
2023/05/16 06:32:15;;;;;;;;;;;10.90;75.60;;;;;;5014485;28;19921;-88
2023/05/16 06:34:40;;;;;;;;;;;11.00;75.80;;;;;;5016576;28;19924;-88
2023/05/16 06:37:06;;;;;;;;;;;11.00;75.20;;;;;;5014500;28;19917;-88
2023/05/16 06:39:31;;;;;;;;;;;11.10;74.60;;;;;;5011934;28;20376;-88
2023/05/16 06:41:57;;;;;;;;;;;11.20;74.30;;;;;;5013118;28;19909;-88
2023/05/16 06:44:22;;;;;;;;;;;11.20;74.60;;;;;;4997916;28;19914;-88
2023/05/16 06:46:48;;;;;;;;;;;11.30;74.40;;;;;;5012187;28;19924;-88
2023/05/16 06:49:14;;;;;;;;;;;11.30;74.10;;;;;;5015785;28;19921;-88
2023/05/16 06:51:39;;;;;;;;;;;11.40;74.20;;;;;;4999952;28;19910;-86
2023/05/16 06:54:05;;;;;;;;;;;11.50;74.70;;;;;;4996733;28;20004;-89
2023/05/16 06:56:31;;;;;;;;;;;11.50;74.10;;;;;;5013876;28;19936;-87
2023/05/16 06:58:56;;;;;;;;;;;11.50;74.20;;;;;;5016568;28;19957;-87
2023/05/16 07:01:22;;;;;;;;;;;11.70;74.30;;;;;;5015717;28;20808;-87
2023/05/16 07:03:47;;;;;;;;;;;11.70;74.40;;;;;;5012514;28;19918;-87
2023/05/16 07:06:13;;;;;;;;;;;11.80;73.90;;;;;;5017823;28;19917;-87
2023/05/16 07:08:38;;;;;;;;;;;11.80;73.50;;;;;;5016459;28;20387;-87
2023/05/16 07:11:04;;;;;;;;;;;12.00;73.70;;;;;;5015975;28;19916;-87
2023/05/16 07:13:29;;;;;;;;;;;12.00;73.00;;;;;;5016687;28;20281;-87
2023/05/16 07:15:55;;;;;;;;;;;12.20;73.10;;;;;;5017659;28;19910;-87
2023/05/16 07:18:20;;;;;;;;;;;12.50;72.60;;;;;;5009755;28;19918;-84
2023/05/16 07:20:47;;;;;;;;;;;13.10;71.40;;;;;;5015585;28;19964;-85
2023/05/16 07:23:12;;;;;;;;;;;14.50;68.20;;;;;;5014016;28;19909;-84
2023/05/16 07:25:38;;;;;;;;;;;16.20;64.30;;;;;;5015413;28;20343;-86
2023/05/16 07:28:04;;;;;;;;;;;19.30;57.00;;;;;;5011334;28;20018;-86
2023/05/16 07:30:29;;;;;;;;;;;21.90;50.50;;;;;;4996641;28;19922;-86
2023/05/16 07:32:55;;;;;;;;;;;24.00;46.00;;;;;;5006565;28;19913;-86
2023/05/16 07:35:20;;;;;;;;;;;25.60;42.10;;;;;;5012923;28;19925;-86
2023/05/16 07:37:46;;;;;;;;;;;26.80;39.40;;;;;;5014418;28;20016;-87
2023/05/16 07:40:12;;;;;;;;;;;27.80;36.20;;;;;;5014231;28;19917;-87
2023/05/16 07:42:37;;;;;;;;;;;28.70;35.50;;;;;;5010186;28;20409;-87
2023/05/16 07:45:04;;;;;;;;;;;29.40;32.90;;;;;;5011119;28;19945;-87
2023/05/16 07:47:29;;;;;;;;;;;30.10;32.00;;;;;;5000096;28;19917;-86
2023/05/16 07:49:55;;;;;;;;;;;30.70;31.50;;;;;;5015980;28;20354;-87
2023/05/16 07:52:21;;;;;;;;;;;31.30;30.50;;;;;;5014635;28;20326;-86
2023/05/16 07:54:46;;;;;;;;;;;31.70;28.80;;;;;;5014095;28;20278;-88
2023/05/16 07:57:15;;;;;;;;;;;32.30;28.40;;;;;;5011728;28;20280;-87
2023/05/16 07:59:41;;;;;;;;;;;32.60;28.10;;;;;;5013122;28;19964;-87
2023/05/16 08:02:06;;;;;;;;;;;32.90;28.00;;;;;;5015606;28;19909;-87
2023/05/16 08:04:32;;;;;;;;;;;33.40;27.00;;;;;;5011686;28;19928;-87
2023/05/16 08:06:58;;;;;;;;;;;33.60;26.10;;;;;;5014636;28;19992;-86
2023/05/16 08:09:23;;;;;;;;;;;34.00;26.20;;;;;;5015350;28;19917;-88
2023/05/16 08:11:49;;;;;;;;;;;34.30;25.80;;;;;;5015990;28;19921;-88
2023/05/16 08:14:14;;;;;;;;;;;34.50;25.90;;;;;;5014653;28;19924;-88
2023/05/16 08:16:40;;;;;;;;;;;34.80;25.00;;;;;;4997031;28;19914;-89
2023/05/16 08:19:06;;;;;;;;;;;34.90;24.90;;;;;;4996058;28;19916;-89
2023/05/16 08:21:32;;;;;;;;;;;35.20;24.80;;;;;;5005355;28;19921;-89
2023/05/16 08:23:57;;;;;;;;;;;35.40;24.50;;;;;;5022557;28;19914;-89
2023/05/16 08:26:23;;;;;;;;;;;35.60;24.00;;;;;;5006383;28;19956;-89
2023/05/16 08:28:49;;;;;;;;;;;35.70;23.70;;;;;;5011399;28;19941;-89
2023/05/16 08:31:14;;;;;;;;;;;35.60;23.70;;;;;;5009579;28;19933;-89
2023/05/16 08:33:40;;;;;;;;;;;35.60;23.40;;;;;;5000775;28;19914;-88
2023/05/16 08:36:06;;;;;;;;;;;35.40;22.80;;;;;;5000994;28;20386;-89
2023/05/16 08:38:31;;;;;;;;;;;35.30;23.60;;;;;;5013114;28;19949;-89
2023/05/16 08:40:57;;;;;;;;;;;35.30;23.10;;;;;;5011516;28;19914;-89
2023/05/16 08:43:23;;;;;;;;;;;35.00;23.50;;;;;;5001741;28;19960;-89
2023/05/16 08:45:48;;;;;;;;;;;35.10;23.90;;;;;;5014453;28;19963;-90
2023/05/16 08:48:15;;;;;;;;;;;35.10;24.10;;;;;;5007741;28;19929;-87
2023/05/16 08:50:42;;;;;;;;;;;34.90;23.20;;;;;;5008488;28;20290;-89
2023/05/16 08:53:08;;;;;;;;;;;35.10;23.50;;;;;;5014511;28;19948;-89
2023/05/16 08:55:34;;;;;;;;;;;35.10;22.80;;;;;;5014530;28;19914;-89
2023/05/16 08:58:00;;;;;;;;;;;35.10;22.30;;;;;;5014865;28;19963;-89
2023/05/16 09:00:26;;;;;;;;;;;35.10;23.10;;;;;;5001050;28;19961;-88
2023/05/16 09:02:52;;;;;;;;;;;35.30;23.00;;;;;;5017359;28;19910;-90
2023/05/16 09:05:17;;;;;;;;;;;35.50;23.50;;;;;;5017763;28;20479;-88
2023/05/16 09:07:43;;;;;;;;;;;35.50;22.20;;;;;;5017408;28;20027;-89
2023/05/16 09:10:09;;;;;;;;;;;35.50;22.00;;;;;;5013940;28;19909;-88
2023/05/16 09:12:35;;;;;;;;;;;35.50;22.10;;;;;;5016856;28;19919;-89
2023/05/16 09:15:02;;;;;;;;;;;35.60;23.10;;;;;;5014834;28;19991;-88
2023/05/16 09:17:33;;;;;;;;;;;35.80;22.90;;;;;;5018914;28;19910;-89
2023/05/16 09:20:00;;;;;;;;;;;36.00;22.90;;;;;;5019033;28;19921;-88
2023/05/16 09:22:25;;;;;;;;;;;35.90;21.30;;;;;;5017790;28;19921;-89
2023/05/16 09:24:51;;;;;;;;;;;35.80;21.70;;;;;;5004851;28;19913;-89
2023/05/16 09:27:17;;;;;;;;;;;35.90;21.90;;;;;;5004829;28;20395;-88
2023/05/16 09:29:43;;;;;;;;;;;36.00;22.00;;;;;;4999993;28;20066;-89
2023/05/16 09:32:09;;;;;;;;;;;35.80;21.00;;;;;;5011474;28;20040;-88
2023/05/16 09:34:39;;;;;;;;;;;35.70;21.90;;;;;;5017934;28;19918;-88
2023/05/16 09:37:04;;;;;;;;;;;35.90;22.20;;;;;;5018146;28;19917;-89
2023/05/16 09:39:30;;;;;;;;;;;36.10;22.20;;;;;;5017921;28;19913;-88
2023/05/16 09:41:57;;;;;;;;;;;36.30;21.70;;;;;;4991225;28;20375;-88
2023/05/16 09:44:23;;;;;;;;;;;36.30;21.20;;;;;;5018043;28;19924;-88
2023/05/16 09:46:49;;;;;;;;;;;36.30;21.70;;;;;;5015816;28;19921;-89
2023/05/16 09:49:14;;;;;;;;;;;35.60;22.10;;;;;;5015974;28;19921;-88
2023/05/16 09:51:40;;;;;;;;;;;34.60;22.10;;;;;;5012109;28;19914;-88
2023/05/16 09:54:09;;;;;;;;;;;34.60;21.90;;;;;;5008715;28;19914;-88
2023/05/16 09:56:46;;;;;;;;;;;34.80;21.30;;;;;;5010550;28;19917;-89
2023/05/16 09:59:13;;;;;;;;;;;35.20;23.00;;;;;;5004198;28;19909;-89
2023/05/16 10:01:40;;;;;;;;;;;34.40;22.00;;;;;;5015129;28;20331;-88
2023/05/16 10:04:05;;;;;;;;;;;33.10;23.30;;;;;;5017428;28;20638;-88
2023/05/16 10:06:31;;;;;;;;;;;32.80;23.80;;;;;;5014306;28;19909;-88
2023/05/16 10:08:57;;;;;;;;;;;33.20;23.30;;;;;;5013035;28;19913;-87
2023/05/16 10:11:23;;;;;;;;;;;33.50;23.20;;;;;;5016730;28;19913;-88
2023/05/16 10:13:51;;;;;;;;;;;33.80;23.00;;;;;;5004852;28;20386;-88
2023/05/16 10:16:17;;;;;;;;;;;33.80;22.90;;;;;;5006965;28;19964;-87
2023/05/16 10:18:45;;;;;;;;;;;33.80;22.30;;;;;;5013287;28;20371;-86
2023/05/16 10:21:15;;;;;;;;;;;33.40;22.30;;;;;;5013172;28;20000;-83
2023/05/16 10:23:42;;;;;;;;;;;33.40;22.70;;;;;;5005532;28;20008;-85
2023/05/16 10:26:07;;;;;;;;;;;33.10;23.30;;;;;;4998829;28;19945;-85
2023/05/16 10:28:34;;;;;;;;;;;32.30;23.30;;;;;;4999132;28;20430;-84
2023/05/16 10:31:01;;;;;;;;;;;31.90;24.10;;;;;;4997721;28;19925;-79
2023/05/16 10:33:27;;;;;;;;;;;31.40;24.10;;;;;;5014942;28;19910;-79
2023/05/16 10:35:53;;;;;;;;;;;30.30;25.50;;;;;;5017576;28;19944;-78
2023/05/16 10:38:20;;;;;;;;;;;29.70;26.60;;;;;;5018119;28;19913;-79
2023/05/16 10:40:46;;;;;;;;;;;29.10;26.80;;;;;;5017365;28;19917;-81
2023/05/16 10:43:21;;;;;;;;;;;28.30;27.00;;;;;;5014465;28;19909;-79
2023/05/16 10:45:52;;;;;;;;;;;27.90;27.10;;;;;;5008806;28;19921;-79
2023/05/16 10:48:27;;;;;;;;;;;27.60;28.60;;;;;;4997586;28;19916;-79
2023/05/16 10:50:52;;;;;;;;;;;27.10;28.20;;;;;;5005515;28;19914;-80
2023/05/16 10:53:21;;;;;;;;;;;26.70;28.50;;;;;;5016840;28;19920;-79
2023/05/16 10:56:02;;;;;;;;;;;26.60;27.50;;;;;;5016209;28;20004;-81
2023/05/16 10:58:34;;;;;;;;;;;26.20;29.10;;;;;;5014756;28;20313;-81
2023/05/16 11:01:20;;;;;;;;;;;25.80;29.50;;;;;;5013674;28;19955;-81
2023/05/16 11:04:05;;;;;;;;;;;25.80;28.80;;;;;;5022568;28;19920;-82
2023/05/16 11:06:43;;;;;;;;;;;25.60;29.70;;;;;;5024101;28;20437;-82
2023/05/16 11:09:14;;;;;;;;;;;25.50;30.70;;;;;;5013633;28;20323;-81
2023/05/16 11:11:45;;;;;;;;;;;25.30;30.80;;;;;;5019643;28;19913;-82
2023/05/16 11:14:19;;;;;;;;;;;25.10;31.80;;;;;;5015760;28;20368;-81
2023/05/16 11:16:50;;;;;;;;;;;25.10;32.50;;;;;;5008250;28;19917;-82
2023/05/16 11:19:27;;;;;;;;;;;24.80;32.50;;;;;;5025789;28;19920;-82
2023/05/16 11:22:06;;;;;;;;;;;24.80;32.90;;;;;;5007078;28;19921;-82
2023/05/16 11:24:33;;;;;;;;;;;24.70;33.80;;;;;;5011924;28;19975;-83
2023/05/16 11:27:00;;;;;;;;;;;24.70;33.10;;;;;;5016481;28;19913;-83
2023/05/16 11:29:35;;;;;;;;;;;24.60;32.10;;;;;;5009237;28;20390;-82
2023/05/16 11:32:02;;;;;;;;;;;24.30;32.60;;;;;;4997884;28;19921;-82
2023/05/16 11:34:28;;;;;;;;;;;24.30;32.80;;;;;;5009085;28;19920;-83
2023/05/16 11:36:55;;;;;;;;;;;24.50;32.50;;;;;;5014670;28;19914;-82
2023/05/16 11:39:21;;;;;;;;;;;24.50;33.70;;;;;;5015016;28;20001;-82
2023/05/16 11:41:47;;;;;;;;;;;24.20;31.90;;;;;;5014455;28;19927;-82
2023/05/16 11:44:12;;;;;;;;;;;24.00;31.80;;;;;;5015901;28;20287;-82
2023/05/16 11:46:39;;;;;;;;;;;24.00;32.80;;;;;;5015739;28;19910;-83
2023/05/16 11:49:06;;;;;;;;;;;24.10;34.20;;;;;;5015494;28;19913;-83
2023/05/16 11:51:33;;;;;;;;;;;24.30;33.70;;;;;;5015089;28;19917;-83
2023/05/16 11:53:59;;;;;;;;;;;24.30;32.70;;;;;;5015146;28;20265;-83
2023/05/16 11:56:25;;;;;;;;;;;24.30;32.40;;;;;;5010646;28;20013;-83
2023/05/16 11:58:50;;;;;;;;;;;24.30;31.60;;;;;;5006498;28;19910;-83
2023/05/16 12:01:16;;;;;;;;;;;24.30;32.80;;;;;;5015770;28;19959;-82
2023/05/16 12:03:41;;;;;;;;;;;24.20;32.80;;;;;;5011654;28;20322;-82
2023/05/16 12:06:07;;;;;;;;;;;24.20;33.10;;;;;;5015685;28;20462;-83
2023/05/16 12:08:33;;;;;;;;;;;24.20;32.30;;;;;;5015900;28;19916;-83
2023/05/16 12:10:59;;;;;;;;;;;24.10;32.60;;;;;;5003855;28;19918;-82
2023/05/16 12:13:24;;;;;;;;;;;24.10;32.10;;;;;;4996207;28;19917;-82
2023/05/16 12:15:51;;;;;;;;;;;24.00;31.50;;;;;;4997057;28;19993;-82
2023/05/16 12:18:17;;;;;;;;;;;23.70;31.70;;;;;;5010606;28;19921;-82
2023/05/16 12:20:43;;;;;;;;;;;23.50;32.70;;;;;;5012561;28;19916;-83
2023/05/16 12:23:12;;;;;;;;;;;23.60;32.80;;;;;;5015717;28;20346;-83
2023/05/16 12:25:44;;;;;;;;;;;23.70;32.90;;;;;;5015629;28;19918;-83
2023/05/16 12:28:14;;;;;;;;;;;23.90;32.60;;;;;;5015431;28;19981;-83
2023/05/16 12:30:40;;;;;;;;;;;24.00;32.60;;;;;;5015290;28;19925;-83
2023/05/16 12:33:10;;;;;;;;;;;24.00;33.20;;;;;;5016003;28;19932;-83
2023/05/16 12:35:39;;;;;;;;;;;23.90;33.30;;;;;;5000447;28;20083;-84
2023/05/16 12:38:06;;;;;;;;;;;23.80;33.80;;;;;;5015344;28;19940;-84
2023/05/16 12:40:32;;;;;;;;;;;23.80;32.70;;;;;;5002286;28;19913;-83
2023/05/16 12:42:57;;;;;;;;;;;23.80;33.50;;;;;;5018469;28;20260;-83
2023/05/16 12:45:23;;;;;;;;;;;23.80;33.80;;;;;;5014205;28;19936;-84
2023/05/16 12:47:49;;;;;;;;;;;23.80;33.50;;;;;;5016274;28;19910;-84
2023/05/16 12:50:16;;;;;;;;;;;23.80;33.70;;;;;;5016838;28;19914;-83
2023/05/16 12:52:52;;;;;;;;;;;23.80;34.50;;;;;;5018377;28;19913;-84
2023/05/16 12:55:18;;;;;;;;;;;23.80;34.30;;;;;;5019180;28;19960;-84
2023/05/16 12:57:46;;;;;;;;;;;23.80;34.40;;;;;;5010568;28;19918;-83
2023/05/16 13:00:12;;;;;;;;;;;23.60;34.50;;;;;;4999598;28;19910;-83
2023/05/16 13:02:38;;;;;;;;;;;23.30;34.00;;;;;;5008810;28;19999;-83
2023/05/16 13:05:04;;;;;;;;;;;23.30;34.00;;;;;;5019210;28;19918;-83
2023/05/16 13:07:29;;;;;;;;;;;23.30;34.60;;;;;;5015619;28;20387;-83
2023/05/16 13:09:55;;;;;;;;;;;23.30;34.50;;;;;;5019428;28;20395;-83
2023/05/16 13:12:25;;;;;;;;;;;23.30;35.30;;;;;;5016036;28;20272;-87
2023/05/16 13:14:51;;;;;;;;;;;23.20;35.30;;;;;;5017452;28;19945;-82
2023/05/16 13:17:17;;;;;;;;;;;23.30;34.70;;;;;;5011453;28;19924;-83
2023/05/16 13:19:42;;;;;;;;;;;23.30;35.50;;;;;;4998968;28;19914;-83
2023/05/16 13:22:08;;;;;;;;;;;23.30;35.30;;;;;;5006998;28;20406;-82
2023/05/16 13:24:33;;;;;;;;;;;23.10;35.80;;;;;;5017525;28;19947;-82
2023/05/16 13:26:59;;;;;;;;;;;22.90;35.90;;;;;;5008443;28;19914;-83
2023/05/16 13:29:24;;;;;;;;;;;23.00;36.40;;;;;;5018596;28;19918;-82
2023/05/16 13:31:50;;;;;;;;;;;23.10;36.30;;;;;;5016068;28;20382;-82
2023/05/16 13:34:15;;;;;;;;;;;22.90;35.20;;;;;;5018767;28;19909;-81
2023/05/16 13:36:41;;;;;;;;;;;22.90;35.50;;;;;;5017299;28;19914;-82
2023/05/16 13:39:07;;;;;;;;;;;23.00;35.80;;;;;;5017467;28;19910;-82
2023/05/16 13:41:36;;;;;;;;;;;23.10;36.10;;;;;;5017857;28;19910;-82
2023/05/16 13:44:02;;;;;;;;;;;23.20;37.10;;;;;;5015856;28;20391;-83
2023/05/16 13:46:27;;;;;;;;;;;23.10;36.20;;;;;;5016506;28;19963;-82
2023/05/16 13:48:53;;;;;;;;;;;23.30;36.90;;;;;;5008079;28;19914;-82
2023/05/16 13:51:18;;;;;;;;;;;23.20;35.70;;;;;;5015448;28;20410;-82
2023/05/16 13:53:44;;;;;;;;;;;23.30;35.90;;;;;;5015023;28;19917;-82
2023/05/16 13:56:09;;;;;;;;;;;23.30;36.00;;;;;;5018062;28;20394;-83
2023/05/16 13:58:35;;;;;;;;;;;23.30;36.00;;;;;;5010463;28;19929;-82
2023/05/16 14:01:00;;;;;;;;;;;23.30;36.10;;;;;;5015137;28;20494;-83
2023/05/16 14:03:26;;;;;;;;;;;23.20;36.00;;;;;;5013133;28;20413;-82
2023/05/16 14:05:51;;;;;;;;;;;23.10;36.10;;;;;;5011770;28;20024;-82
2023/05/16 14:08:17;;;;;;;;;;;23.00;36.30;;;;;;5016672;28;19910;-82
2023/05/16 14:10:43;;;;;;;;;;;23.10;35.80;;;;;;5022924;28;19916;-82
2023/05/16 14:13:08;;;;;;;;;;;23.10;36.40;;;;;;5024494;28;19913;-82
2023/05/16 14:15:34;;;;;;;;;;;23.10;36.40;;;;;;5016224;28;19918;-82
2023/05/16 14:18:00;;;;;;;;;;;23.00;37.40;;;;;;5014407;28;20297;-82
2023/05/16 14:20:25;;;;;;;;;;;23.00;37.40;;;;;;5016509;28;19940;-82
2023/05/16 14:22:51;;;;;;;;;;;22.90;35.70;;;;;;5008526;28;20016;-82
2023/05/16 14:25:16;;;;;;;;;;;22.80;36.10;;;;;;5017688;28;20410;-82
2023/05/16 14:27:42;;;;;;;;;;;22.90;36.80;;;;;;5016723;28;19909;-82
2023/05/16 14:30:08;;;;;;;;;;;22.90;36.00;;;;;;5013930;28;19918;-82
2023/05/16 14:32:33;;;;;;;;;;;22.80;35.60;;;;;;5011636;28;19921;-82
2023/05/16 14:34:59;;;;;;;;;;;22.80;36.00;;;;;;5012474;28;20338;-93
2023/05/16 14:37:25;;;;;;;;;;;22.80;36.10;;;;;;5019713;28;19917;-81
2023/05/16 14:39:51;;;;;;;;;;;22.80;36.50;;;;;;5023674;28;20387;-82
2023/05/16 14:42:17;;;;;;;;;;;22.80;36.60;;;;;;5009163;28;19988;-82
2023/05/16 14:44:43;;;;;;;;;;;22.80;36.80;;;;;;5014238;28;19932;-82
2023/05/16 14:47:08;;;;;;;;;;;22.70;35.90;;;;;;5015325;28;20004;-82
2023/05/16 14:49:34;;;;;;;;;;;22.60;36.40;;;;;;5015252;28;19910;-84
2023/05/16 14:52:00;;;;;;;;;;;22.40;36.70;;;;;;5013384;28;19929;-85
2023/05/16 14:54:25;;;;;;;;;;;22.40;37.50;;;;;;5016272;28;19917;-81
2023/05/16 14:56:51;;;;;;;;;;;22.40;37.30;;;;;;5014354;28;19909;-82
2023/05/16 14:59:16;;;;;;;;;;;22.40;37.40;;;;;;5013675;28;19924;-81
2023/05/16 15:01:42;;;;;;;;;;;22.30;37.50;;;;;;5015215;28;19909;-87
2023/05/16 15:04:07;;;;;;;;;;;22.30;37.20;;;;;;5013768;28;19947;-81
2023/05/16 15:06:34;;;;;;;;;;;22.20;37.20;;;;;;5016648;28;19910;-79
2023/05/16 15:09:00;;;;;;;;;;;22.20;37.10;;;;;;5016080;28;20005;-80
2023/05/16 15:11:25;;;;;;;;;;;22.20;37.00;;;;;;5016177;28;20411;-80
2023/05/16 15:13:51;;;;;;;;;;;22.20;38.00;;;;;;5007212;28;19961;-80
2023/05/16 15:16:16;;;;;;;;;;;22.20;38.30;;;;;;5005352;28;19921;-80
2023/05/16 15:18:42;;;;;;;;;;;22.20;38.00;;;;;;4995061;28;20067;-79
2023/05/16 15:21:08;;;;;;;;;;;22.20;37.80;;;;;;5013422;28;20372;-79
2023/05/16 15:23:34;;;;;;;;;;;22.10;37.40;;;;;;5008178;28;19971;-79
2023/05/16 15:25:59;;;;;;;;;;;22.00;37.10;;;;;;5008433;28;19937;-78
2023/05/16 15:28:25;;;;;;;;;;;21.90;37.70;;;;;;4999951;28;19913;-79
2023/05/16 15:30:50;;;;;;;;;;;22.00;38.50;;;;;;5004584;28;19943;-79
2023/05/16 15:33:16;;;;;;;;;;;22.00;37.60;;;;;;5003010;28;19910;-80
2023/05/16 15:35:41;;;;;;;;;;;21.90;37.80;;;;;;5002355;28;20028;-79
2023/05/16 15:38:07;;;;;;;;;;;21.90;37.90;;;;;;5016597;28;19980;-79
2023/05/16 15:40:33;;;;;;;;;;;21.90;38.40;;;;;;5013223;28;19909;-79
2023/05/16 15:42:58;;;;;;;;;;;21.90;38.90;;;;;;5014565;28;20048;-80
2023/05/16 15:45:24;;;;;;;;;;;21.80;38.10;;;;;;5012309;28;19957;-79
2023/05/16 15:47:49;;;;;;;;;;;21.80;39.20;;;;;;4997621;28;19914;-80
2023/05/16 15:50:15;;;;;;;;;;;21.80;38.70;;;;;;4996618;28;19914;-79
2023/05/16 15:52:40;;;;;;;8.98;3.10;;;21.80;39.00;;;;;;4999574;28;20390;-82
2023/05/16 15:55:06;;;;;;;6.00;1.40;;;21.50;40.20;;;;;;5018575;28;20041;-79
2023/05/16 15:57:32;;;;;;;3.63;1.35;;;21.50;40.40;;;;;;5017819;28;20029;-78
2023/05/16 15:59:58;;;;;;;9.50;3.00;;;21.50;40.20;;;;;;5003236;28;20086;-92
2023/05/16 16:02:24;;;;;;;5.90;2.33;;;21.30;41.30;;;;;;5006648;28;20021;-89
2023/05/16 16:04:50;;;;;;;4.30;1.08;;;21.30;40.70;;;;;;5015079;28;20033;-89
2023/05/16 16:07:16;;;;;;;4.38;1.17;;;21.20;40.50;;;;;;5013220;28;20030;-90
2023/05/16 16:09:42;;;;;;;7.32;2.25;;;21.20;40.70;;;;;;5014416;28;20026;-89
2023/05/16 16:12:08;;;;;;;3.33;0.90;;;21.20;40.80;;;;;;5038333;28;20049;-88
2023/05/16 16:14:33;;;;;;;6.55;1.00;;;21.20;41.00;;;;;;5031435;28;20042;-89
2023/05/16 16:16:59;;;;;;;3.97;1.10;;;21.20;40.30;;;;;;5019608;28;20025;-87
2023/05/16 16:19:25;;;;;;;6.88;1.23;;;21.10;39.90;;;;;;5019252;28;20034;-88
2023/05/16 16:21:51;;;;;;;3.38;1.10;;;21.10;40.00;;;;;;5019195;28;20400;-88
2023/05/16 16:24:16;;;;;;;2.17;0.80;;;21.10;40.20;;;;;;5015323;28;20034;-87
2023/05/16 16:26:42;;;;;;;4.47;0.98;;;20.90;39.80;;;;;;5015748;28;20514;-88
2023/05/16 16:29:08;;;;;;;4.32;0.98;;;20.90;40.10;;;;;;5002759;28;20121;-90
2023/05/16 16:31:34;;;;;;;3.75;1.35;;;20.90;39.60;;;;;;5001391;28;20440;-89
2023/05/16 16:33:59;;;;;;;3.65;1.30;;;20.80;39.90;;;;;;5022666;28;20046;-85
2023/05/16 16:36:25;;;;;;;2.90;1.15;;;20.80;39.90;;;;;;5020834;28;20040;-89
2023/05/16 16:38:51;;;;;;;6.43;1.10;;;20.70;39.30;;;;;;5019437;28;20026;-88
2023/05/16 16:41:17;;;;;;;5.47;1.55;;;20.70;39.20;;;;;;5018955;28;20541;-85
2023/05/16 16:43:42;;;;;;;2.72;1.00;;;20.70;39.30;;;;;;5019540;28;20384;-84
2023/05/16 16:46:08;;;;;;;4.95;1.00;;;20.60;40.00;;;;;;5017347;28;20069;-84
2023/05/16 16:48:35;;;;;;;4.60;0.95;;;20.50;39.50;;;;;;5010864;28;20160;-84
2023/05/16 16:51:01;;;;;;;5.05;0.80;;;20.40;39.70;;;;;;5013703;28;20034;-83
2023/05/16 16:53:27;;;;;;;4.88;0.90;;;20.30;40.40;;;;;;5017380;28;20392;-83
2023/05/16 16:55:53;;;;;;;5.57;1.10;;;20.30;39.70;;;;;;5017779;28;20025;-84
2023/05/16 16:58:18;;;;;;;2.38;0.88;;;20.30;40.10;;;;;;5018401;28;20508;-82
2023/05/16 17:00:44;;;;;;;6.60;1.02;;;20.20;40.10;;;;;;5018326;28;20040;-83
2023/05/16 17:03:11;;;;;;;8.32;0.98;;;20.10;40.00;;;;;;5018664;28;20045;-83
2023/05/16 17:05:36;;;;;;;4.03;0.82;;;20.10;39.60;;;;;;5018754;28;20037;-83
2023/05/16 17:08:02;;;;;;;4.45;1.20;;;20.00;39.50;;;;;;5018981;28;20030;-83
2023/05/16 17:10:29;;;;;;;4.55;1.40;;;20.00;39.50;;;;;;5023004;28;20018;-82
2023/05/16 17:12:54;;;;;;;2.35;0.65;;;19.90;39.80;;;;;;5019483;28;20022;-83
2023/05/16 17:15:20;;;;;;;2.83;0.80;;;19.90;39.70;;;;;;5017008;28;20041;-83
2023/05/16 17:17:47;;;;;;;4.28;0.90;;;19.80;40.00;;;;;;5015949;28;20026;-85
2023/05/16 17:20:13;;;;;;;2.80;0.93;;;19.80;40.20;;;;;;5018261;28;20037;-87
2023/05/16 17:22:39;;;;;;;3.10;0.98;;;19.70;40.40;;;;;;5016211;28;20025;-84
2023/05/16 17:25:06;;;;;;;4.50;0.73;;;19.70;39.80;;;;;;5013556;28;20116;-80
2023/05/16 17:27:32;;;;;;;3.70;1.00;;;19.60;39.90;;;;;;5021770;28;20081;-85
2023/05/16 17:29:58;;;;;;;5.00;0.90;;;19.60;40.70;;;;;;5020960;28;20052;-83
2023/05/16 17:32:27;;;;;;;3.00;0.70;;;19.60;40.70;;;;;;5029765;28;20046;-89
2023/05/16 17:34:53;;;;;;;3.85;0.93;;;19.60;40.30;;;;;;5001735;28;20034;-82
2023/05/16 17:37:19;;;;;;;2.45;0.95;;;19.50;40.60;;;;;;5018130;28;20471;-81
2023/05/16 17:39:45;;;;;;;6.43;0.93;;;19.50;41.10;;;;;;5022881;28;20037;-80
2023/05/16 17:42:11;;;;;;;2.58;0.68;;;19.50;41.30;;;;;;5018249;28;20056;-82
2023/05/16 17:44:38;;;;;;;4.05;0.98;;;19.40;41.10;;;;;;5022644;28;20057;-83
2023/05/16 17:47:04;;;;;;;0.93;0.40;;;19.40;41.20;;;;;;5020223;28;20109;-87
2023/05/16 17:49:29;;;;;;;1.27;0.70;;;19.30;40.80;;;;;;5016481;28;20123;-86
2023/05/16 17:51:56;;;;;;;3.47;0.90;;;19.30;41.00;;;;;;5001463;28;20035;-86
2023/05/16 17:54:22;;;;;;;6.07;0.90;;;19.20;41.20;;;;;;5017231;28;20403;-84
2023/05/16 17:56:52;;;;;;;2.83;0.60;;;19.10;41.40;;;;;;5007585;28;20122;-81
2023/05/16 17:59:18;;;;;;;2.55;1.00;;;19.00;41.50;;;;;;4998767;28;20037;-78
2023/05/16 18:01:43;;;;;;;6.40;1.35;;;19.00;41.40;;;;;;5013342;28;20038;-84
2023/05/16 18:04:09;;;;;;;4.68;1.20;;;18.90;41.60;;;;;;5018232;28;20117;-84
2023/05/16 18:06:38;;;;;;;4.20;0.70;;;18.90;41.20;;;;;;5017594;28;20033;-84
2023/05/16 18:09:06;;;;;;;4.57;0.90;;;18.80;41.40;;;;;;5018416;28;20442;-83
2023/05/16 18:11:38;;;;;;;3.25;0.95;;;18.80;41.80;;;;;;5030299;28;20025;-84
2023/05/16 18:14:04;;;;;;;5.50;1.20;;;18.70;41.40;;;;;;5007375;28;20023;-85
2023/05/16 18:16:29;;;;;;;2.45;1.00;;;18.70;41.60;;;;;;5016404;28;20041;-81
2023/05/16 18:18:56;;;;;;;2.25;0.95;;;18.60;41.50;;;;;;5018337;28;20101;-82
2023/05/16 18:21:22;;;;;;;6.28;1.13;;;18.60;41.90;;;;;;5019924;28;20058;-82
2023/05/16 18:23:47;;;;;;;3.28;0.90;;;18.50;42.10;;;;;;4996991;28;20393;-86